createdAt,value
2023-04-08T00:02:17.266Z,18.31
2023-04-08T00:04:44.576Z,18.32
2023-04-08T00:07:11.845Z,18.31
2023-04-08T00:09:39.149Z,18.31
2023-04-08T00:12:06.723Z,18.30
2023-04-08T00:14:34.075Z,18.31
2023-04-08T00:17:01.413Z,18.29
2023-04-08T00:19:29.242Z,18.31
2023-04-08T00:21:56.561Z,18.31
2023-04-08T00:24:23.883Z,18.29
2023-04-08T00:26:51.918Z,18.31
2023-04-08T00:29:19.226Z,18.29
2023-04-08T00:31:46.684Z,18.30
2023-04-08T00:34:14.203Z,18.29
2023-04-08T00:36:41.363Z,18.31
2023-04-08T00:39:08.870Z,18.29
2023-04-08T00:41:36.224Z,18.30
2023-04-08T00:44:03.593Z,18.29
2023-04-08T00:46:34.001Z,18.29
2023-04-08T00:49:02.320Z,18.29
2023-04-08T00:51:31.174Z,18.29
2023-04-08T00:54:00.503Z,18.29
2023-04-08T00:56:28.126Z,18.29
2023-04-08T00:58:56.190Z,18.29
2023-04-08T01:01:52.943Z,18.29
2023-04-08T01:04:52.186Z,18.29
2023-04-08T01:07:37.819Z,18.29
2023-04-08T01:10:15.777Z,18.29
2023-04-08T01:12:54.534Z,18.30
2023-04-08T01:15:22.686Z,18.28
2023-04-08T01:17:54.652Z,18.28
2023-04-08T01:20:24.178Z,18.28
2023-04-08T01:23:00.353Z,18.28
2023-04-08T01:25:34.676Z,18.29
2023-04-08T01:28:07.333Z,18.29
2023-04-08T01:30:37.996Z,18.28
2023-04-08T01:33:06.216Z,18.28
2023-04-08T01:35:34.070Z,18.29
2023-04-08T01:38:03.573Z,18.27
2023-04-08T01:40:32.720Z,18.28
2023-04-08T01:43:01.957Z,18.28
2023-04-08T01:45:30.785Z,18.27
2023-04-08T01:48:00.237Z,18.26
2023-04-08T01:50:29.109Z,18.27
2023-04-08T01:52:59.124Z,18.29
2023-04-08T01:55:28.060Z,18.28
2023-04-08T01:57:57.554Z,18.28
2023-04-08T02:00:29.457Z,18.27
2023-04-08T02:02:58.031Z,18.28
2023-04-08T02:05:25.484Z,18.28
2023-04-08T02:07:52.891Z,18.28
2023-04-08T02:10:21.133Z,18.27
2023-04-08T02:12:48.565Z,18.28
2023-04-08T02:15:16.788Z,18.28
2023-04-08T02:17:55.540Z,18.28
2023-04-08T02:20:33.633Z,18.28
2023-04-08T02:23:19.595Z,18.28
2023-04-08T02:25:48.786Z,18.28
2023-04-08T02:28:18.884Z,18.27
2023-04-08T02:30:49.941Z,18.28
2023-04-08T02:33:20.983Z,18.27
2023-04-08T02:35:51.034Z,18.28
2023-04-08T02:38:18.421Z,18.27
2023-04-08T02:40:45.662Z,18.27
2023-04-08T02:43:12.952Z,18.27
2023-04-08T02:45:44.567Z,18.26
2023-04-08T02:48:12.248Z,18.26
2023-04-08T02:50:40.715Z,18.27
2023-04-08T02:53:09.493Z,18.27
2023-04-08T02:55:38.091Z,18.28
2023-04-08T02:58:05.511Z,18.27
2023-04-08T03:00:32.769Z,18.27
2023-04-08T03:03:00.419Z,18.27
2023-04-08T03:05:27.932Z,18.28
2023-04-08T03:07:55.492Z,18.28
2023-04-08T03:10:22.788Z,18.27
2023-04-08T03:12:50.023Z,18.26
2023-04-08T03:15:17.270Z,18.27
2023-04-08T03:17:44.653Z,18.27
2023-04-08T03:20:12.091Z,18.27
2023-04-08T03:22:39.316Z,18.26
2023-04-08T03:25:07.007Z,18.26
2023-04-08T03:27:34.359Z,18.26
2023-04-08T03:30:02.438Z,18.25
2023-04-08T03:32:29.854Z,18.27
2023-04-08T03:34:57.366Z,18.27
2023-04-08T03:37:24.831Z,18.28
2023-04-08T03:39:52.109Z,18.27
2023-04-08T03:42:19.359Z,18.27
2023-04-08T03:44:46.644Z,18.27
2023-04-08T03:47:13.873Z,18.27
2023-04-08T03:49:41.264Z,18.26
2023-04-08T03:52:08.657Z,18.26
2023-04-08T03:54:36.049Z,18.26
2023-04-08T03:57:03.249Z,18.27
2023-04-08T03:59:30.649Z,18.25
2023-04-08T04:01:57.917Z,18.26
2023-04-08T04:04:25.793Z,18.25
2023-04-08T04:06:53.139Z,18.25
2023-04-08T04:09:20.476Z,18.25
2023-04-08T04:11:47.815Z,18.26
2023-04-08T04:14:15.072Z,18.24
2023-04-08T04:16:42.365Z,18.25
2023-04-08T04:19:09.722Z,18.25
2023-04-08T04:21:37.191Z,18.25
2023-04-08T04:24:04.743Z,18.24
2023-04-08T04:26:32.043Z,18.24
2023-04-08T04:28:59.288Z,18.24
2023-04-08T04:31:26.756Z,18.24
2023-04-08T04:33:54.651Z,18.24
2023-04-08T04:36:21.968Z,18.24
2023-04-08T04:38:50.934Z,18.24
2023-04-08T04:41:18.467Z,18.23
2023-04-08T04:43:45.840Z,18.24
2023-04-08T04:46:13.355Z,18.24
2023-04-08T04:48:40.792Z,18.23
2023-04-08T04:51:08.116Z,18.24
2023-04-08T04:53:35.492Z,18.24
2023-04-08T04:56:02.890Z,18.22
2023-04-08T04:58:30.787Z,18.23
2023-04-08T05:00:58.376Z,18.22
2023-04-08T05:03:26.148Z,18.22
2023-04-08T05:05:54.462Z,18.23
2023-04-08T05:08:21.933Z,18.23
2023-04-08T05:10:50.921Z,18.23
2023-04-08T05:13:18.832Z,18.22
2023-04-08T05:15:46.353Z,18.22
2023-04-08T05:18:14.040Z,18.22
2023-04-08T05:20:41.437Z,18.22
2023-04-08T05:23:08.941Z,18.21
2023-04-08T05:25:36.474Z,18.22
2023-04-08T05:28:04.337Z,18.22
2023-04-08T05:30:31.626Z,18.22
2023-04-08T05:33:00.592Z,18.23
2023-04-08T05:35:29.191Z,18.22
2023-04-08T05:37:56.477Z,18.22
2023-04-08T05:40:23.983Z,18.22
2023-04-08T05:42:51.239Z,18.22
2023-04-08T05:45:18.581Z,18.22
2023-04-08T05:47:45.925Z,18.21
2023-04-08T05:50:13.341Z,18.22
2023-04-08T05:52:47.140Z,18.21
2023-04-08T05:55:14.812Z,18.22
2023-04-08T05:57:42.273Z,18.22
2023-04-08T06:00:10.772Z,18.21
2023-04-08T06:02:38.912Z,18.21
2023-04-08T06:05:06.828Z,18.21
2023-04-08T06:07:34.589Z,18.21
2023-04-08T06:10:02.815Z,18.21
2023-04-08T06:12:30.132Z,18.21
2023-04-08T06:14:57.437Z,18.21
2023-04-08T06:17:24.864Z,18.22
2023-04-08T06:19:52.156Z,18.22
2023-04-08T06:22:19.411Z,18.21
2023-04-08T06:24:48.162Z,18.20
2023-04-08T06:27:16.059Z,18.21
2023-04-08T06:29:43.476Z,18.21
2023-04-08T06:32:11.348Z,18.22
2023-04-08T06:34:38.954Z,18.22
2023-04-08T06:37:06.525Z,18.22
2023-04-08T06:39:34.165Z,18.22
2023-04-08T06:42:01.809Z,18.22
2023-04-08T06:45:04.938Z,18.22
2023-04-08T06:47:32.223Z,18.23
2023-04-08T06:49:59.660Z,18.22
2023-04-08T06:52:27.350Z,18.22
2023-04-08T06:54:54.671Z,18.22
2023-04-08T06:57:22.081Z,18.21
2023-04-08T06:59:49.327Z,18.21
2023-04-08T07:02:16.683Z,18.22
2023-04-08T07:04:45.510Z,18.22
2023-04-08T07:07:14.410Z,18.22
2023-04-08T07:09:43.397Z,18.22
2023-04-08T07:12:10.590Z,18.22
2023-04-08T07:14:37.833Z,18.22
2023-04-08T07:17:05.640Z,18.23
2023-04-08T07:19:33.085Z,18.23
2023-04-08T07:22:00.693Z,18.24
2023-04-08T07:24:28.060Z,18.23
2023-04-08T07:26:56.824Z,18.22
2023-04-08T07:29:24.055Z,18.22
2023-04-08T07:31:51.874Z,18.23
2023-04-08T07:34:19.067Z,18.23
2023-04-08T07:36:46.449Z,18.24
2023-04-08T07:39:13.782Z,18.23
2023-04-08T07:41:41.054Z,18.23
2023-04-08T07:44:08.355Z,18.24
2023-04-08T07:46:39.104Z,18.24
2023-04-08T07:49:06.824Z,18.25
2023-04-08T07:51:34.777Z,18.23
2023-04-08T07:54:02.042Z,18.24
2023-04-08T07:56:29.396Z,18.25
2023-04-08T07:58:56.717Z,18.26
2023-04-08T08:01:24.507Z,18.27
2023-04-08T08:03:53.260Z,18.28
2023-04-08T08:06:22.149Z,18.28
2023-04-08T08:08:49.468Z,18.32
2023-04-08T08:11:16.745Z,18.33
2023-04-08T08:13:44.162Z,18.36
2023-04-08T08:16:12.071Z,18.36
2023-04-08T08:18:40.599Z,18.39
2023-04-08T08:21:09.036Z,18.41
2023-04-08T08:23:37.467Z,18.43
2023-04-08T08:26:07.488Z,18.43
2023-04-08T08:28:34.802Z,18.44
2023-04-08T08:31:06.232Z,18.42
2023-04-08T08:33:34.076Z,18.43
2023-04-08T08:36:01.716Z,18.42
2023-04-08T08:38:28.977Z,18.41
2023-04-08T08:41:00.479Z,18.40
2023-04-08T08:43:29.221Z,18.39
2023-04-08T08:45:56.497Z,18.38
2023-04-08T08:48:23.935Z,18.37
2023-04-08T08:50:51.515Z,18.36
2023-04-08T08:53:20.733Z,18.35
2023-04-08T08:58:19.052Z,18.37
2023-04-08T09:00:46.389Z,18.38
2023-04-08T09:03:19.079Z,18.41
2023-04-08T09:05:51.905Z,18.43
2023-04-08T09:08:27.161Z,18.43
2023-04-08T09:10:55.743Z,18.44
2023-04-08T09:13:24.821Z,18.43
2023-04-08T09:16:06.430Z,18.43
2023-04-08T09:18:34.066Z,18.45
2023-04-08T09:21:02.649Z,18.48
2023-04-08T09:23:52.717Z,18.57
2023-04-08T09:26:24.869Z,18.69
2023-04-08T09:29:18.238Z,18.74
2023-04-08T09:31:56.810Z,18.77
2023-04-08T09:34:26.680Z,18.76
2023-04-08T09:36:56.485Z,18.77
2023-04-08T09:39:24.396Z,18.74
2023-04-08T09:41:53.160Z,18.72
2023-04-08T09:44:22.275Z,18.69
2023-04-08T09:46:49.566Z,18.69
2023-04-08T09:49:50.071Z,18.66
2023-04-08T09:52:21.409Z,18.64
2023-04-08T09:54:53.505Z,18.66
2023-04-08T09:57:43.300Z,18.66
2023-04-08T10:00:15.478Z,18.66
2023-04-08T10:02:57.346Z,18.67
2023-04-08T10:05:25.574Z,18.65
2023-04-08T10:07:52.900Z,18.65
2023-04-08T10:10:21.167Z,18.63
2023-04-08T10:12:49.848Z,18.65
2023-04-08T10:15:29.378Z,18.65
2023-04-08T10:18:20.457Z,18.64
2023-04-08T10:20:49.403Z,18.64
2023-04-08T10:23:18.250Z,18.64
2023-04-08T10:25:49.330Z,18.65
2023-04-08T10:28:19.237Z,18.65
2023-04-08T10:30:48.295Z,18.65
2023-04-08T10:33:40.069Z,18.66
2023-04-08T10:36:10.112Z,18.65
2023-04-08T10:38:42.727Z,18.67
2023-04-08T10:41:14.407Z,18.67
2023-04-08T10:43:41.991Z,18.68
2023-04-08T10:46:11.708Z,18.67
2023-04-08T10:48:39.377Z,18.67
2023-04-08T10:51:06.764Z,18.68
2023-04-08T10:53:36.857Z,18.70
2023-04-08T10:56:08.120Z,18.69
2023-04-08T10:58:39.198Z,18.71
2023-04-08T11:01:08.039Z,18.72
2023-04-08T11:03:37.212Z,18.71
2023-04-08T11:06:06.177Z,18.71
2023-04-08T11:08:34.590Z,18.72
2023-04-08T11:11:02.165Z,18.71
2023-04-08T11:13:30.756Z,18.70
2023-04-08T11:16:00.236Z,18.69
2023-04-08T11:18:28.695Z,18.69
2023-04-08T11:20:57.624Z,18.68
2023-04-08T11:23:26.521Z,18.68
2023-04-08T11:25:54.268Z,18.67
2023-04-08T11:28:22.734Z,18.66
2023-04-08T11:30:50.594Z,18.66
2023-04-08T11:33:18.003Z,18.66
2023-04-08T11:35:45.591Z,18.65
2023-04-08T11:38:13.228Z,18.64
2023-04-08T11:40:40.826Z,18.64
2023-04-08T11:43:12.228Z,18.64
2023-04-08T11:45:40.684Z,18.65
2023-04-08T11:48:11.785Z,18.64
2023-04-08T11:50:39.131Z,18.64
2023-04-08T11:53:25.122Z,18.65
2023-04-08T11:55:52.600Z,18.64
2023-04-08T11:58:19.823Z,18.64
2023-04-08T12:00:47.660Z,18.64
2023-04-08T12:03:15.269Z,18.65
2023-04-08T12:05:42.895Z,18.65
2023-04-08T12:08:10.260Z,18.65
2023-04-08T12:10:37.959Z,18.65
2023-04-08T12:13:05.235Z,18.64
2023-04-08T12:15:32.922Z,18.64
2023-04-08T12:18:00.578Z,18.64
2023-04-08T12:20:27.806Z,18.64
2023-04-08T12:22:55.061Z,18.63
2023-04-08T12:25:22.325Z,18.64
2023-04-08T12:27:49.813Z,18.63
2023-04-08T12:30:17.120Z,18.63
2023-04-08T12:32:46.081Z,18.63
2023-04-08T12:35:13.970Z,18.63
2023-04-08T12:37:41.444Z,18.64
2023-04-08T12:40:09.180Z,18.64
2023-04-08T12:42:36.429Z,18.64
2023-04-08T12:45:03.965Z,18.65
2023-04-08T12:47:31.257Z,18.64
2023-04-08T12:49:58.624Z,18.64
2023-04-08T12:52:25.919Z,18.64
2023-04-08T12:54:53.137Z,18.64
2023-04-08T12:57:20.605Z,18.63
2023-04-08T12:59:47.873Z,18.64
2023-04-08T13:02:15.399Z,18.64
2023-04-08T13:04:42.842Z,18.64
2023-04-08T13:07:10.207Z,18.64
2023-04-08T13:09:37.498Z,18.63
2023-04-08T13:12:05.066Z,18.63
2023-04-08T13:14:32.911Z,18.63
2023-04-08T13:17:00.205Z,18.63
2023-04-08T13:19:27.547Z,18.62
2023-04-08T13:21:54.814Z,18.62
2023-04-08T13:24:22.698Z,18.62
2023-04-08T13:26:49.975Z,18.63
2023-04-08T13:29:17.208Z,18.62
2023-04-08T13:31:44.520Z,18.64
2023-04-08T13:34:11.758Z,18.63
2023-04-08T13:36:39.154Z,18.64
2023-04-08T13:39:06.419Z,18.64
2023-04-08T13:41:35.017Z,18.64
2023-04-08T13:44:02.264Z,18.64
2023-04-08T13:46:29.725Z,18.64
2023-04-08T13:48:57.035Z,18.65
2023-04-08T13:51:24.501Z,18.64
2023-04-08T13:53:52.067Z,18.65
2023-04-08T13:56:19.433Z,18.66
2023-04-08T13:58:52.542Z,18.66
2023-04-08T14:01:24.075Z,18.66
2023-04-08T14:03:51.413Z,18.64
2023-04-08T14:06:18.676Z,18.64
2023-04-08T14:08:46.028Z,18.65
2023-04-08T14:11:13.432Z,18.64
2023-04-08T14:13:40.888Z,18.64
2023-04-08T14:16:08.075Z,18.64
2023-04-08T14:18:35.288Z,18.64
2023-04-08T14:21:02.788Z,18.65
2023-04-08T14:23:30.109Z,18.65
2023-04-08T14:25:57.365Z,18.64
2023-04-08T14:28:24.618Z,18.64
2023-04-08T14:30:52.259Z,18.64
2023-04-08T14:33:19.585Z,18.65
2023-04-08T14:35:47.811Z,18.65
2023-04-08T14:38:15.815Z,18.66
2023-04-08T14:40:43.165Z,18.65
2023-04-08T14:43:10.398Z,18.66
2023-04-08T14:45:37.683Z,18.65
2023-04-08T14:48:05.157Z,18.65
2023-04-08T14:50:32.480Z,18.65
2023-04-08T14:52:59.773Z,18.65
2023-04-08T14:55:28.540Z,18.63
2023-04-08T14:57:57.066Z,18.64
2023-04-08T15:00:24.523Z,18.64
2023-04-08T15:02:51.899Z,18.65
2023-04-08T15:05:19.198Z,18.64
2023-04-08T15:07:50.009Z,18.64
2023-04-08T15:10:17.377Z,18.65
2023-04-08T15:12:44.725Z,18.65
2023-04-08T15:15:12.050Z,18.65
2023-04-08T15:17:39.269Z,18.65
2023-04-08T15:20:07.754Z,18.65
2023-04-08T15:22:35.115Z,18.65
2023-04-08T15:25:05.047Z,18.65
2023-04-08T15:27:32.407Z,18.65
2023-04-08T15:29:59.740Z,18.65
2023-04-08T15:32:27.712Z,18.64
2023-04-08T15:34:55.066Z,18.64
2023-04-08T15:37:23.046Z,18.66
2023-04-08T15:39:50.867Z,18.65
2023-04-08T15:42:18.236Z,18.64
2023-04-08T15:44:45.499Z,18.65
2023-04-08T15:47:13.011Z,18.64
2023-04-08T15:49:40.449Z,18.64
2023-04-08T15:52:07.782Z,18.64
2023-04-08T15:54:35.059Z,18.64
2023-04-08T15:57:05.638Z,18.64
2023-04-08T15:59:33.170Z,18.65
2023-04-08T16:02:00.741Z,18.63
2023-04-08T16:04:28.224Z,18.64
2023-04-08T16:06:55.756Z,18.64
2023-04-08T16:09:26.665Z,18.65
2023-04-08T16:11:54.093Z,18.64
2023-04-08T16:14:22.986Z,18.64
2023-04-08T16:16:51.408Z,18.65
2023-04-08T16:19:18.702Z,18.65
2023-04-08T16:21:46.374Z,18.64
2023-04-08T16:24:14.412Z,18.65
2023-04-08T16:26:42.139Z,18.65
2023-04-08T16:29:09.727Z,18.67
2023-04-08T16:31:37.431Z,18.67
2023-04-08T16:34:05.103Z,18.68
2023-04-08T16:36:32.657Z,18.70
2023-04-08T16:39:00.160Z,18.70
2023-04-08T16:41:27.477Z,18.70
2023-04-08T16:43:55.000Z,18.70
2023-04-08T16:46:23.155Z,18.70
2023-04-08T16:48:50.547Z,18.70
2023-04-08T16:51:18.983Z,18.71
2023-04-08T16:53:46.546Z,18.72
2023-04-08T16:56:17.127Z,18.70
2023-04-08T16:58:44.688Z,18.71
2023-04-08T17:01:14.222Z,18.71
2023-04-08T17:03:41.926Z,18.71
2023-04-08T17:06:12.077Z,18.72
2023-04-08T17:08:43.132Z,18.71
2023-04-08T17:11:13.192Z,18.71
2023-04-08T17:13:42.022Z,18.71
2023-04-08T17:16:14.327Z,18.71
2023-04-08T17:18:42.386Z,18.70
2023-04-08T17:21:09.822Z,18.71
2023-04-08T17:23:37.099Z,18.72
2023-04-08T17:26:08.824Z,18.71
2023-04-08T17:28:36.361Z,18.73
2023-04-08T17:31:03.770Z,18.73
2023-04-08T17:33:31.243Z,18.72
2023-04-08T17:35:58.668Z,18.73
2023-04-08T17:38:26.124Z,18.73
2023-04-08T17:40:53.514Z,18.73
2023-04-08T17:43:20.773Z,18.74
2023-04-08T17:45:50.096Z,18.75
2023-04-08T17:48:18.710Z,18.73
2023-04-08T17:50:45.962Z,18.72
2023-04-08T17:53:13.115Z,18.72
2023-04-08T17:55:40.382Z,18.73
2023-04-08T17:58:07.713Z,18.73
2023-04-08T18:00:35.029Z,18.72
2023-04-08T18:03:02.516Z,18.73
2023-04-08T18:05:30.137Z,18.73
2023-04-08T18:07:58.561Z,18.73
2023-04-08T18:10:25.900Z,18.74
2023-04-08T18:13:00.621Z,18.73
2023-04-08T18:15:38.505Z,18.74
2023-04-08T18:18:05.911Z,18.74
2023-04-08T18:20:37.254Z,18.74
2023-04-08T18:23:04.575Z,18.75
2023-04-08T18:25:32.393Z,18.75
2023-04-08T18:27:59.679Z,18.76
2023-04-08T18:30:27.150Z,18.76
2023-04-08T18:32:54.493Z,18.76
2023-04-08T18:35:22.101Z,18.75
2023-04-08T18:37:49.685Z,18.75
2023-04-08T18:40:17.762Z,18.76
2023-04-08T18:42:44.971Z,18.74
2023-04-08T18:45:12.456Z,18.75
2023-04-08T18:47:39.746Z,18.75
2023-04-08T18:50:07.747Z,18.76
2023-04-08T18:52:35.171Z,18.77
2023-04-08T18:55:02.717Z,18.76
2023-04-08T18:57:30.097Z,18.77
2023-04-08T18:59:57.381Z,18.76
2023-04-08T19:02:24.699Z,18.76
2023-04-08T19:04:52.209Z,18.76
2023-04-08T19:07:19.601Z,18.76
2023-04-08T19:09:46.918Z,18.76
2023-04-08T19:12:14.182Z,18.76
2023-04-08T19:14:42.131Z,18.76
2023-04-08T19:17:09.800Z,18.75
2023-04-08T19:19:37.206Z,18.75
2023-04-08T19:22:05.772Z,18.76
2023-04-08T19:24:33.836Z,18.76
2023-04-08T19:27:01.136Z,18.75
2023-04-08T19:29:32.811Z,18.75
2023-04-08T19:32:01.667Z,18.76
2023-04-08T19:34:29.269Z,18.77
2023-04-08T19:36:56.833Z,18.78
2023-04-08T19:39:26.378Z,18.78
2023-04-08T19:41:54.979Z,18.80
2023-04-08T19:44:24.851Z,18.78
2023-04-08T19:46:52.206Z,18.78
2023-04-08T19:49:20.630Z,18.78
2023-04-08T19:51:47.954Z,18.77
2023-04-08T19:54:15.214Z,18.77
2023-04-08T19:56:42.652Z,18.76
2023-04-08T19:59:11.499Z,18.76
2023-04-08T20:01:40.096Z,18.76
2023-04-08T20:04:07.606Z,18.76
2023-04-08T20:06:35.235Z,18.76
2023-04-08T20:09:05.711Z,18.76
2023-04-08T20:11:33.995Z,18.76
2023-04-08T20:14:01.583Z,18.76
2023-04-08T20:16:28.937Z,18.75
2023-04-08T20:18:56.516Z,18.76
2023-04-08T20:21:23.793Z,18.75
2023-04-08T20:23:51.102Z,18.75
2023-04-08T20:26:18.446Z,18.75
2023-04-08T20:28:46.270Z,18.74
2023-04-08T20:31:14.355Z,18.74
2023-04-08T20:33:45.523Z,18.73
2023-04-08T20:36:13.763Z,18.75
2023-04-08T20:38:42.732Z,18.74
2023-04-08T20:41:10.210Z,18.74
2023-04-08T20:43:37.916Z,18.74
2023-04-08T20:46:05.272Z,18.74
2023-04-08T20:48:33.297Z,18.74
2023-04-08T20:51:00.652Z,18.73
2023-04-08T20:53:28.100Z,18.74
2023-04-08T20:55:55.846Z,18.74
2023-04-08T20:58:23.081Z,18.74
2023-04-08T21:00:50.480Z,18.74
2023-04-08T21:03:18.379Z,18.75
2023-04-08T21:05:46.744Z,18.74
2023-04-08T21:08:14.077Z,18.74
2023-04-08T21:10:41.378Z,18.76
2023-04-08T21:13:08.600Z,18.75
2023-04-08T21:15:35.856Z,18.76
2023-04-08T21:18:04.079Z,18.76
2023-04-08T21:20:31.629Z,18.77
2023-04-08T21:22:59.687Z,18.77
2023-04-08T21:25:26.992Z,18.78
2023-04-08T21:27:54.245Z,18.78
2023-04-08T21:30:21.675Z,18.79
2023-04-08T21:32:48.997Z,18.80
2023-04-08T21:35:16.414Z,18.80
2023-04-08T21:37:43.728Z,18.79
2023-04-08T21:40:11.533Z,18.80
2023-04-08T21:42:38.904Z,18.80
2023-04-08T21:45:06.809Z,18.80
2023-04-08T21:47:34.071Z,18.81
2023-04-08T21:50:01.500Z,18.81
2023-04-08T21:52:29.474Z,18.81
2023-04-08T21:54:56.811Z,18.82
2023-04-08T21:57:24.184Z,18.81
2023-04-08T21:59:51.717Z,18.81
2023-04-08T22:02:18.991Z,18.81
2023-04-08T22:04:46.446Z,18.81
2023-04-08T22:07:13.821Z,18.81
2023-04-08T22:09:41.396Z,18.81
2023-04-08T22:12:10.062Z,18.80
2023-04-08T22:14:38.027Z,18.81
2023-04-08T22:17:05.600Z,18.81
2023-04-08T22:19:33.037Z,18.81
2023-04-08T22:22:00.354Z,18.81
2023-04-08T22:24:30.994Z,18.81
2023-04-08T22:26:58.692Z,18.81
2023-04-08T22:29:26.130Z,18.82
2023-04-08T22:31:53.447Z,18.81
2023-04-08T22:34:20.853Z,18.81
2023-04-08T22:36:48.183Z,18.80
2023-04-08T22:39:15.481Z,18.81
2023-04-08T22:41:42.766Z,18.81
2023-04-08T22:44:09.998Z,18.81
2023-04-08T22:46:37.474Z,18.82
2023-04-08T22:49:05.025Z,18.80
2023-04-08T22:51:32.240Z,18.82
2023-04-08T22:53:59.517Z,18.81
2023-04-08T22:56:28.708Z,18.81
2023-04-08T22:58:56.509Z,18.80
2023-04-08T23:01:23.770Z,18.80
2023-04-08T23:03:51.554Z,18.78
2023-04-08T23:06:18.911Z,18.79
2023-04-08T23:08:46.188Z,18.78
2023-04-08T23:11:13.479Z,18.78
2023-04-08T23:13:40.819Z,18.76
2023-04-08T23:16:09.769Z,18.77
2023-04-08T23:18:36.973Z,18.77
2023-04-08T23:21:04.530Z,18.76
2023-04-08T23:23:31.960Z,18.75
2023-04-08T23:25:59.154Z,18.75
2023-04-08T23:28:26.442Z,18.75
2023-04-08T23:30:53.657Z,18.75
2023-04-08T23:33:21.038Z,18.75
2023-04-08T23:35:49.824Z,18.75
2023-04-08T23:38:17.056Z,18.75
2023-04-08T23:40:44.289Z,18.75
2023-04-08T23:43:11.600Z,18.74
2023-04-08T23:45:38.978Z,18.75
2023-04-08T23:48:08.296Z,18.74
2023-04-08T23:50:36.862Z,18.74
2023-04-08T23:53:04.077Z,18.74
2023-04-08T23:55:31.311Z,18.73
2023-04-08T23:57:58.529Z,18.73
